createdAt,value
2018-02-24T00:01:25.848Z,16.40
2018-02-24T00:03:54.881Z,13.67
2018-02-24T00:06:24.168Z,20.23
2018-02-24T00:08:52.489Z,17.87
2018-02-24T00:11:20.752Z,13.23
2018-02-24T00:13:49.036Z,14.10
2018-02-24T00:16:17.707Z,17.37
2018-02-24T00:18:50.592Z,12.80
2018-02-24T00:21:19.232Z,12.10
2018-02-24T00:23:48.366Z,13.40
2018-02-24T00:26:16.671Z,14.30
2018-02-24T00:28:45.188Z,15.10
2018-02-24T00:31:14.732Z,14.93
2018-02-24T00:33:43.002Z,18.80
2018-02-24T00:36:12.362Z,15.60
2018-02-24T00:38:41.401Z,10.50
2018-02-24T00:41:09.682Z,15.30
2018-02-24T00:43:37.991Z,16.50
2018-02-24T00:46:07.762Z,14.00
2018-02-24T00:48:36.034Z,15.77
2018-02-24T00:51:04.341Z,10.40
2018-02-24T00:53:33.551Z,11.60
2018-02-24T00:56:02.564Z,6.53
2018-02-24T00:58:31.639Z,17.77
2018-02-24T01:00:59.919Z,14.90
2018-02-24T01:03:28.195Z,12.00
2018-02-24T01:05:56.509Z,17.00
2018-02-24T01:08:25.616Z,15.13
2018-02-24T01:10:53.882Z,13.20
2018-02-24T01:13:22.952Z,12.10
2018-02-24T01:15:52.005Z,16.20
2018-02-24T01:18:20.274Z,19.23
2018-02-24T01:20:48.773Z,21.87
2018-02-24T01:23:17.057Z,18.30
2018-02-24T01:25:45.315Z,14.50
2018-02-24T01:28:14.232Z,15.67
2018-02-24T01:30:42.505Z,14.13
2018-02-24T01:33:11.572Z,16.63
2018-02-24T01:35:39.981Z,16.50
2018-02-24T01:38:08.255Z,10.00
2018-02-24T01:40:37.300Z,12.00
2018-02-24T01:43:05.619Z,18.10
2018-02-24T01:45:34.936Z,15.20
2018-02-24T01:48:03.219Z,18.63
2018-02-24T01:50:41.432Z,19.80
2018-02-24T01:53:09.729Z,17.10
2018-02-24T01:55:41.200Z,16.57
2018-02-24T01:58:09.620Z,16.93
2018-02-24T02:00:37.964Z,14.93
2018-02-24T02:03:06.276Z,13.80
2018-02-24T02:05:36.266Z,12.37
2018-02-24T02:08:04.908Z,21.60
2018-02-24T02:10:33.978Z,12.50
2018-02-24T02:13:02.385Z,9.10
2018-02-24T02:15:31.466Z,16.17
2018-02-24T02:17:59.811Z,17.60
2018-02-24T02:20:29.946Z,13.87
2018-02-24T02:22:58.297Z,18.47
2018-02-24T02:25:26.659Z,10.60
2018-02-24T02:27:55.474Z,20.90
2018-02-24T02:30:23.837Z,15.87
2018-02-24T02:32:53.072Z,12.67
2018-02-24T02:35:22.249Z,18.70
2018-02-24T02:37:50.535Z,18.97
2018-02-24T02:40:20.355Z,18.20
2018-02-24T02:42:50.191Z,20.80
2018-02-24T02:45:20.009Z,18.80
2018-02-24T02:47:49.061Z,20.60
2018-02-24T02:50:17.373Z,16.13
2018-02-24T02:52:46.446Z,15.77
2018-02-24T02:55:14.719Z,22.23
2018-02-24T02:57:44.742Z,17.20
2018-02-24T03:00:13.013Z,18.83
2018-02-24T03:02:41.280Z,19.87
2018-02-24T03:05:10.280Z,19.73
2018-02-24T03:07:39.023Z,19.77
2018-02-24T03:10:07.316Z,18.63
2018-02-24T03:12:35.623Z,20.00
2018-02-24T03:15:03.885Z,14.30
2018-02-24T03:17:32.904Z,16.07
2018-02-24T03:20:02.132Z,17.60
2018-02-24T03:22:31.977Z,24.27
2018-02-24T03:25:00.248Z,16.80
2018-02-24T03:27:28.873Z,17.27
2018-02-24T03:29:57.148Z,22.27
2018-02-24T03:32:25.476Z,18.67
2018-02-24T03:34:54.290Z,20.97
2018-02-24T03:37:22.565Z,19.10
2018-02-24T03:39:50.834Z,18.60
2018-02-24T03:42:19.334Z,22.00
2018-02-24T03:44:47.610Z,7.93
2018-02-24T03:47:16.245Z,24.10
2018-02-24T03:49:46.309Z,18.20
2018-02-24T03:52:14.592Z,16.67
2018-02-24T03:54:45.120Z,12.97
2018-02-24T03:57:13.601Z,23.40
2018-02-24T03:59:42.937Z,17.23
2018-02-24T04:02:11.231Z,20.50
2018-02-24T04:04:39.589Z,19.67
2018-02-24T04:07:08.760Z,17.20
2018-02-24T04:09:37.036Z,19.73
2018-02-24T04:12:05.684Z,22.47
2018-02-24T04:14:34.032Z,20.20
2018-02-24T04:17:02.323Z,16.00
2018-02-24T04:19:32.147Z,13.73
2018-02-24T04:22:00.431Z,20.93
2018-02-24T04:24:30.866Z,17.77
2018-02-24T04:26:59.478Z,18.60
2018-02-24T04:29:27.750Z,19.63
2018-02-24T04:31:56.030Z,16.03
2018-02-24T04:34:24.704Z,16.53
2018-02-24T04:36:53.160Z,13.87
2018-02-24T04:39:21.475Z,18.77
2018-02-24T04:41:50.572Z,21.00
2018-02-24T04:44:19.632Z,21.43
2018-02-24T04:46:47.909Z,19.00
2018-02-24T04:49:17.945Z,25.60
2018-02-24T04:51:46.202Z,19.00
2018-02-24T04:54:14.484Z,19.23
2018-02-24T04:56:44.247Z,21.13
2018-02-24T04:59:13.287Z,16.63
2018-02-24T05:01:47.914Z,18.77
2018-02-24T05:04:16.188Z,19.60
2018-02-24T05:06:45.199Z,15.43
2018-02-24T05:09:13.577Z,21.00
2018-02-24T05:11:41.940Z,16.80
2018-02-24T05:14:11.711Z,17.73
2018-02-24T05:16:40.830Z,18.83
2018-02-24T05:19:09.107Z,22.77
2018-02-24T05:21:37.383Z,25.60
2018-02-24T05:24:05.698Z,18.97
2018-02-24T05:26:34.974Z,15.90
2018-02-24T05:29:03.251Z,16.53
2018-02-24T05:31:31.555Z,20.93
2018-02-24T05:33:59.832Z,18.20
2018-02-24T05:36:28.107Z,16.87
2018-02-24T05:38:59.660Z,16.73
2018-02-24T05:41:27.931Z,14.60
2018-02-24T05:43:56.212Z,27.23
2018-02-24T05:46:24.514Z,26.27
2018-02-24T05:48:52.805Z,18.83
2018-02-24T05:51:22.017Z,18.50
2018-02-24T05:53:50.339Z,19.07
2018-02-24T05:56:20.167Z,21.80
2018-02-24T05:58:48.477Z,17.43
2018-02-24T06:01:16.813Z,16.50
2018-02-24T06:03:47.704Z,19.70
2018-02-24T06:06:15.969Z,16.40
2018-02-24T06:08:45.227Z,18.37
2018-02-24T06:11:14.291Z,19.20
2018-02-24T06:13:42.666Z,18.37
2018-02-24T06:16:13.319Z,19.03
2018-02-24T06:18:41.598Z,14.87
2018-02-24T06:21:10.741Z,18.50
2018-02-24T06:23:39.790Z,17.60
2018-02-24T06:26:08.046Z,19.67
2018-02-24T06:28:37.938Z,17.00
2018-02-24T06:31:06.405Z,16.13
2018-02-24T06:33:36.153Z,18.63
2018-02-24T06:36:04.413Z,18.90
2018-02-24T06:38:32.853Z,14.60
2018-02-24T06:41:01.918Z,18.50
2018-02-24T06:43:30.200Z,18.17
2018-02-24T06:45:59.694Z,13.00
2018-02-24T06:48:27.983Z,16.80
2018-02-24T06:50:56.259Z,17.60
2018-02-24T06:53:25.352Z,10.27
2018-02-24T06:55:53.628Z,14.83
2018-02-24T06:58:22.707Z,13.77
2018-02-24T07:00:51.004Z,17.87
2018-02-24T07:03:20.048Z,24.73
2018-02-24T07:05:49.082Z,23.27
2018-02-24T07:08:17.402Z,15.07
2018-02-24T07:10:45.663Z,19.27
2018-02-24T07:13:13.964Z,12.57
2018-02-24T07:15:42.384Z,17.97
2018-02-24T07:18:10.648Z,17.10
2018-02-24T07:20:38.942Z,16.80
2018-02-24T07:23:07.251Z,15.50
2018-02-24T07:25:36.319Z,15.27
2018-02-24T07:28:04.622Z,17.20
2018-02-24T07:30:36.753Z,21.93
2018-02-24T07:33:05.031Z,18.03
2018-02-24T07:35:35.574Z,11.93
2018-02-24T07:38:03.906Z,16.00
2018-02-24T07:40:32.182Z,16.53
2018-02-24T07:43:00.461Z,15.90
2018-02-24T07:45:28.774Z,14.67
2018-02-24T07:47:57.872Z,12.90
2018-02-24T07:50:26.157Z,19.57
2018-02-24T07:52:54.678Z,14.00
2018-02-24T07:55:25.531Z,15.17
2018-02-24T07:57:53.837Z,14.80
2018-02-24T08:00:22.142Z,16.30
2018-02-24T08:02:51.175Z,13.37
2018-02-24T08:05:19.494Z,17.60
2018-02-24T08:07:53.459Z,17.97
2018-02-24T08:10:21.748Z,16.17
2018-02-24T08:12:51.593Z,14.50
2018-02-24T08:15:20.262Z,15.47
2018-02-24T08:17:48.554Z,12.43
2018-02-24T08:20:21.268Z,13.00
2018-02-24T08:22:49.536Z,14.67
2018-02-24T08:25:18.544Z,11.87
2018-02-24T08:27:47.187Z,13.30
2018-02-24T08:30:15.538Z,9.87
2018-02-24T08:32:44.686Z,16.00
2018-02-24T08:35:13.155Z,15.63
2018-02-24T08:37:43.070Z,13.60
2018-02-24T08:40:12.109Z,12.93
2018-02-24T08:42:40.650Z,13.97
2018-02-24T08:45:11.002Z,11.47
2018-02-24T08:47:39.295Z,14.33
2018-02-24T08:50:07.892Z,11.50
2018-02-24T08:52:36.270Z,10.03
2018-02-24T08:55:04.650Z,12.47
2018-02-24T08:57:35.402Z,14.37
2018-02-24T09:00:03.737Z,12.13
2018-02-24T09:02:32.058Z,14.13
2018-02-24T09:05:00.373Z,14.57
2018-02-24T09:07:28.664Z,9.30
2018-02-24T09:09:57.266Z,10.47
2018-02-24T09:12:25.590Z,11.40
2018-02-24T09:14:54.673Z,16.23
2018-02-24T09:17:22.962Z,12.53
2018-02-24T09:19:52.065Z,8.73
2018-02-24T09:22:24.180Z,8.40
2018-02-24T09:24:52.458Z,11.40
2018-02-24T09:27:20.881Z,10.00
2018-02-24T09:29:49.935Z,9.13
2018-02-24T09:32:18.206Z,12.20
2018-02-24T09:34:46.774Z,12.53
2018-02-24T09:37:15.689Z,10.50
2018-02-24T09:39:43.958Z,10.40
2018-02-24T09:42:12.703Z,12.30
2018-02-24T09:44:41.742Z,9.00
2018-02-24T09:47:10.986Z,5.40
2018-02-24T09:49:39.533Z,8.10
2018-02-24T09:52:08.618Z,11.40
2018-02-24T09:54:36.908Z,12.60
2018-02-24T09:57:05.313Z,9.00
2018-02-24T09:59:34.772Z,9.97
2018-02-24T10:02:03.049Z,10.93
2018-02-24T10:04:31.551Z,14.90
2018-02-24T10:06:59.822Z,10.57
2018-02-24T10:09:28.083Z,8.37
2018-02-24T10:11:59.558Z,8.57
2018-02-24T10:14:27.826Z,10.50
2018-02-24T10:16:56.101Z,9.30
2018-02-24T10:19:24.396Z,9.17
2018-02-24T10:21:53.427Z,8.40
2018-02-24T10:24:24.365Z,6.50
2018-02-24T10:26:52.697Z,10.03
2018-02-24T10:29:21.047Z,7.80
2018-02-24T10:31:49.298Z,6.73
2018-02-24T10:34:17.585Z,5.70
2018-02-24T10:36:47.437Z,10.17
2018-02-24T10:39:15.716Z,6.80
2018-02-24T10:41:44.000Z,5.70
2018-02-24T10:44:12.276Z,9.50
2018-02-24T10:46:40.547Z,6.53
2018-02-24T10:49:15.309Z,5.50
2018-02-24T10:51:44.356Z,8.33
2018-02-24T10:54:12.614Z,9.80
2018-02-24T10:56:41.010Z,6.30
2018-02-24T10:59:09.270Z,7.67
2018-02-24T11:01:39.893Z,6.70
2018-02-24T11:04:08.271Z,5.90
2018-02-24T11:06:36.524Z,7.53
2018-02-24T11:09:04.793Z,6.03
2018-02-24T11:11:34.377Z,6.00
2018-02-24T11:14:05.411Z,5.70
2018-02-24T11:16:33.771Z,6.87
2018-02-24T11:19:02.293Z,8.43
2018-02-24T11:21:31.346Z,6.67
2018-02-24T11:23:59.609Z,8.67
2018-02-24T11:26:28.730Z,7.73
2018-02-24T11:28:57.005Z,8.67
2018-02-24T11:31:25.348Z,4.80
2018-02-24T11:33:53.982Z,5.97
2018-02-24T11:36:22.379Z,3.47
2018-02-24T11:38:51.011Z,4.70
2018-02-24T11:41:19.454Z,4.63
2018-02-24T11:43:48.466Z,5.67
2018-02-24T11:46:16.725Z,5.93
2018-02-24T11:48:45.044Z,4.80
2018-02-24T11:51:17.089Z,3.87
2018-02-24T11:53:45.342Z,4.70
2018-02-24T11:56:14.960Z,4.80
2018-02-24T11:58:43.277Z,4.10
2018-02-24T12:01:11.564Z,5.00
2018-02-24T12:03:41.767Z,5.07
2018-02-24T12:06:10.031Z,5.30
2018-02-24T12:08:38.304Z,4.83
2018-02-24T12:11:06.610Z,3.73
2018-02-24T12:13:34.869Z,3.97
2018-02-24T12:16:04.874Z,5.63
2018-02-24T12:18:33.196Z,5.20
2018-02-24T12:21:01.462Z,4.70
2018-02-24T12:23:29.735Z,3.43
2018-02-24T12:25:58.017Z,4.77
2018-02-24T12:28:27.518Z,4.53
2018-02-24T12:30:55.797Z,6.10
2018-02-24T12:33:24.174Z,3.57
2018-02-24T12:35:52.414Z,5.40
2018-02-24T12:38:20.779Z,6.63
2018-02-24T12:40:51.347Z,5.60
2018-02-24T12:43:19.591Z,4.93
2018-02-24T12:45:47.857Z,7.33
2018-02-24T12:48:16.809Z,6.47
2018-02-24T12:50:45.068Z,6.53
2018-02-24T12:53:18.759Z,3.47
2018-02-24T12:55:47.955Z,6.27
2018-02-24T12:58:16.219Z,6.70
2018-02-24T13:00:44.606Z,6.17
2018-02-24T13:03:12.885Z,5.43
2018-02-24T13:05:41.167Z,7.07
2018-02-24T13:08:09.462Z,7.20
2018-02-24T13:10:38.847Z,3.93
2018-02-24T13:13:07.142Z,6.97
2018-02-24T13:15:35.993Z,5.53
2018-02-24T13:18:07.634Z,5.03
2018-02-24T13:20:35.934Z,4.93
2018-02-24T13:23:04.230Z,6.70
2018-02-24T13:25:32.498Z,5.60
2018-02-24T13:28:02.218Z,6.43
2018-02-24T13:30:30.576Z,9.50
2018-02-24T13:32:58.892Z,8.00
2018-02-24T13:35:27.470Z,6.83
2018-02-24T13:37:55.755Z,8.40
2018-02-24T13:40:24.801Z,6.87
2018-02-24T13:42:55.242Z,7.10
2018-02-24T13:45:23.506Z,6.70
2018-02-24T13:47:51.790Z,7.57
2018-02-24T13:50:20.301Z,5.90
2018-02-24T13:52:49.343Z,8.30
2018-02-24T13:55:19.879Z,7.53
2018-02-24T13:57:48.207Z,4.90
2018-02-24T14:00:17.283Z,7.30
2018-02-24T14:02:45.579Z,6.53
2018-02-24T14:05:13.885Z,9.20
2018-02-24T14:07:44.656Z,6.97
2018-02-24T14:10:14.161Z,5.00
2018-02-24T14:12:42.645Z,8.50
2018-02-24T14:15:11.649Z,6.80
2018-02-24T14:17:40.217Z,5.67
2018-02-24T14:20:10.352Z,6.90
2018-02-24T14:22:38.624Z,6.77
2018-02-24T14:25:08.010Z,7.43
2018-02-24T14:27:38.281Z,6.97
2018-02-24T14:30:06.540Z,9.00
2018-02-24T14:32:34.914Z,7.73
2018-02-24T14:35:03.299Z,6.17
2018-02-24T14:37:31.578Z,4.63
2018-02-24T14:40:01.227Z,6.57
2018-02-24T14:42:29.620Z,6.37
2018-02-24T14:44:58.641Z,7.63
2018-02-24T14:47:26.912Z,6.30
2018-02-24T14:49:55.308Z,6.50
2018-02-24T14:52:23.590Z,6.43
2018-02-24T14:54:51.848Z,5.47
2018-02-24T14:57:21.176Z,4.17
2018-02-24T14:59:49.427Z,4.70
2018-02-24T15:02:17.711Z,5.37
2018-02-24T15:04:46.523Z,6.73
2018-02-24T15:07:15.566Z,3.53
2018-02-24T15:09:44.631Z,6.27
2018-02-24T15:12:12.938Z,5.80
2018-02-24T15:14:41.196Z,5.13
2018-02-24T15:17:09.465Z,3.90
2018-02-24T15:19:37.756Z,4.57
2018-02-24T15:22:08.298Z,4.33
2018-02-24T15:24:36.578Z,5.13
2018-02-24T15:27:04.975Z,4.80
2018-02-24T15:29:33.304Z,5.90
2018-02-24T15:32:01.672Z,4.83
2018-02-24T15:34:31.031Z,3.30
2018-02-24T15:36:59.392Z,5.37
2018-02-24T15:39:27.770Z,2.10
2018-02-24T15:41:57.961Z,5.60
2018-02-24T15:44:26.217Z,3.60
2018-02-24T15:46:54.824Z,3.27
2018-02-24T15:49:23.275Z,4.97
2018-02-24T15:51:52.395Z,5.27
2018-02-24T15:54:22.444Z,4.50
2018-02-24T15:56:51.849Z,6.27
2018-02-24T15:59:21.623Z,4.30
2018-02-24T16:01:49.872Z,4.93
2018-02-24T16:04:19.508Z,3.90
2018-02-24T16:06:48.550Z,3.97
2018-02-24T16:09:17.019Z,4.40
2018-02-24T16:11:47.718Z,4.90
2018-02-24T16:14:16.026Z,5.87
2018-02-24T16:16:44.290Z,4.93
2018-02-24T16:19:12.787Z,4.50
2018-02-24T16:21:41.180Z,3.57
2018-02-24T16:24:11.307Z,4.27
2018-02-24T16:26:39.687Z,4.63
2018-02-24T16:29:08.713Z,4.10
2018-02-24T16:31:36.972Z,4.43
2018-02-24T16:34:05.280Z,4.50
2018-02-24T16:36:34.418Z,4.80
2018-02-24T16:39:02.788Z,4.00
2018-02-24T16:41:31.849Z,4.20
2018-02-24T16:44:01.473Z,2.97
2018-02-24T16:46:29.773Z,4.17
2018-02-24T16:48:58.828Z,4.50
2018-02-24T16:51:27.109Z,3.33
2018-02-24T16:53:55.382Z,3.03
2018-02-24T16:56:23.803Z,3.73
2018-02-24T16:58:52.138Z,2.80
2018-02-24T17:01:22.764Z,3.13
2018-02-24T17:03:51.378Z,2.37
2018-02-24T17:06:19.756Z,2.13
2018-02-24T17:08:48.143Z,2.60
2018-02-24T17:11:16.452Z,2.80
2018-02-24T17:13:45.774Z,1.47
2018-02-24T17:16:14.054Z,1.83
2018-02-24T17:18:42.382Z,2.10
2018-02-24T17:21:11.434Z,2.23
2018-02-24T17:23:44.331Z,1.83
2018-02-24T17:26:27.540Z,2.27
2018-02-24T17:29:08.373Z,2.80
2018-02-24T17:31:49.464Z,2.33
2018-02-24T17:34:31.076Z,1.87
2018-02-24T17:37:03.750Z,2.30
2018-02-24T17:39:32.806Z,2.20
2018-02-24T17:42:01.097Z,1.67
2018-02-24T17:44:30.472Z,1.80
2018-02-24T17:46:58.802Z,1.90
2018-02-24T17:49:28.580Z,2.10
2018-02-24T17:52:01.672Z,3.13
2018-02-24T17:54:29.966Z,2.50
2018-02-24T17:56:58.296Z,2.40
2018-02-24T17:59:26.893Z,3.17
2018-02-24T18:01:59.571Z,2.70
2018-02-24T18:04:27.883Z,2.10
2018-02-24T18:06:56.936Z,2.90
2018-02-24T18:09:25.303Z,2.60
2018-02-24T18:11:53.698Z,3.10
2018-02-24T18:14:22.771Z,2.37
2018-02-24T18:16:51.036Z,2.20
2018-02-24T18:19:20.467Z,2.20
2018-02-24T18:21:48.752Z,2.20
2018-02-24T18:24:18.260Z,1.97
2018-02-24T18:26:47.438Z,2.13
2018-02-24T18:29:15.719Z,3.10
2018-02-24T18:31:44.027Z,5.00
2018-02-24T18:34:12.321Z,3.17
2018-02-24T18:36:43.722Z,3.43
2018-02-24T18:39:12.483Z,5.80
2018-02-24T18:41:40.806Z,3.27
2018-02-24T18:44:10.581Z,2.60
2018-02-24T18:46:38.888Z,2.70
2018-02-24T18:49:07.349Z,1.90
2018-02-24T18:51:36.851Z,2.37
2018-02-24T18:54:05.137Z,1.80
2018-02-24T18:56:34.124Z,2.10
2018-02-24T18:59:02.408Z,1.87
2018-02-24T19:01:30.704Z,2.93
2018-02-24T19:03:59.769Z,1.80
2018-02-24T19:06:28.078Z,1.70
2018-02-24T19:08:56.335Z,2.40
2018-02-24T19:11:24.814Z,2.27
2018-02-24T19:13:53.079Z,2.10
2018-02-24T19:16:24.528Z,6.43
2018-02-24T19:18:53.432Z,2.40
2018-02-24T19:21:21.730Z,3.23
2018-02-24T19:23:50.107Z,3.70
2018-02-24T19:26:18.415Z,3.03
2018-02-24T19:28:48.226Z,2.63
2018-02-24T19:31:16.498Z,2.03
2018-02-24T19:33:44.816Z,2.10
2018-02-24T19:36:13.077Z,2.50
2018-02-24T19:38:42.068Z,1.47
2018-02-24T19:41:13.356Z,2.20
2018-02-24T19:43:41.646Z,2.00
2018-02-24T19:46:09.909Z,2.40
2018-02-24T19:48:38.387Z,2.30
2018-02-24T19:51:06.657Z,2.00
2018-02-24T19:53:34.942Z,1.80
2018-02-24T19:56:03.621Z,2.67
2018-02-24T19:58:31.895Z,2.30
2018-02-24T20:01:00.184Z,2.10
2018-02-24T20:03:29.319Z,2.73
2018-02-24T20:05:58.471Z,2.43
2018-02-24T20:08:26.748Z,1.70
2018-02-24T20:10:55.119Z,2.10
2018-02-24T20:13:23.483Z,2.07
2018-02-24T20:15:51.805Z,2.30
2018-02-24T20:18:21.744Z,1.87
2018-02-24T20:20:50.081Z,1.33
2018-02-24T20:23:18.420Z,2.60
2018-02-24T20:25:47.571Z,2.60
2018-02-24T20:28:16.635Z,2.17
2018-02-24T20:30:45.865Z,2.00
2018-02-24T20:33:14.995Z,2.00
2018-02-24T20:35:43.281Z,1.97
2018-02-24T20:38:11.556Z,2.90
2018-02-24T20:40:40.377Z,2.70
2018-02-24T20:43:09.829Z,3.50
2018-02-24T20:45:38.118Z,2.77
2018-02-24T20:48:06.439Z,3.30
2018-02-24T20:50:34.722Z,2.97
2018-02-24T20:53:03.775Z,1.67
2018-02-24T20:55:36.143Z,2.33
2018-02-24T20:58:04.404Z,2.37
2018-02-24T21:00:32.678Z,1.40
2018-02-24T21:03:02.464Z,2.63
2018-02-24T21:05:31.496Z,2.53
2018-02-24T21:07:59.866Z,2.87
2018-02-24T21:10:29.083Z,2.70
2018-02-24T21:12:57.341Z,2.50
2018-02-24T21:15:25.639Z,2.23
2018-02-24T21:17:54.071Z,2.80
2018-02-24T21:20:25.176Z,3.30
2018-02-24T21:22:53.464Z,3.43
2018-02-24T21:25:22.962Z,3.27
2018-02-24T21:27:51.239Z,3.40
2018-02-24T21:30:19.499Z,2.37
2018-02-24T21:32:47.985Z,1.93
2018-02-24T21:35:16.241Z,3.03
2018-02-24T21:37:44.508Z,2.40
2018-02-24T21:40:12.785Z,3.17
2018-02-24T21:42:41.472Z,2.67
2018-02-24T21:45:11.211Z,2.70
2018-02-24T21:47:39.548Z,2.10
2018-02-24T21:50:07.814Z,3.47
2018-02-24T21:52:36.104Z,2.97
2018-02-24T21:55:04.499Z,2.50
2018-02-24T21:57:32.767Z,3.00
2018-02-24T22:00:01.069Z,3.93
2018-02-24T22:02:29.371Z,3.03
2018-02-24T22:04:57.631Z,3.30
2018-02-24T22:07:25.907Z,2.50
2018-02-24T22:09:56.440Z,3.00
2018-02-24T22:12:24.782Z,3.00
2018-02-24T22:14:53.038Z,3.47
2018-02-24T22:17:22.166Z,2.27
2018-02-24T22:19:50.448Z,3.80
2018-02-24T22:22:19.526Z,3.20
2018-02-24T22:24:48.118Z,3.17
2018-02-24T22:27:16.390Z,4.30
2018-02-24T22:29:44.655Z,3.47
2018-02-24T22:32:12.964Z,4.10
2018-02-24T22:34:42.852Z,3.50
2018-02-24T22:37:11.146Z,3.00
2018-02-24T22:39:39.439Z,3.73
2018-02-24T22:42:07.715Z,3.10
2018-02-24T22:44:38.603Z,3.80
2018-02-24T22:47:08.662Z,4.13
2018-02-24T22:49:36.928Z,2.47
2018-02-24T22:52:05.192Z,3.30
2018-02-24T22:54:34.522Z,3.57
2018-02-24T22:57:02.802Z,3.83
2018-02-24T22:59:31.968Z,2.67
2018-02-24T23:02:00.411Z,4.73
2018-02-24T23:04:29.558Z,2.87
2018-02-24T23:06:57.811Z,4.20
2018-02-24T23:09:26.220Z,2.93
2018-02-24T23:11:57.484Z,3.57
2018-02-24T23:14:25.746Z,4.70
2018-02-24T23:16:55.443Z,4.50
2018-02-24T23:19:23.733Z,4.30
2018-02-24T23:21:52.009Z,3.90
2018-02-24T23:24:20.594Z,2.70
2018-02-24T23:26:48.889Z,3.30
2018-02-24T23:29:17.147Z,4.50
2018-02-24T23:31:45.469Z,3.60
2018-02-24T23:34:13.743Z,3.50
2018-02-24T23:36:42.845Z,4.33
2018-02-24T23:39:11.174Z,4.20
2018-02-24T23:41:39.445Z,4.70
2018-02-24T23:44:07.705Z,3.90
2018-02-24T23:46:38.649Z,4.33
2018-02-24T23:49:07.668Z,3.20
2018-02-24T23:51:35.950Z,4.30
2018-02-24T23:54:05.237Z,3.20
2018-02-24T23:56:33.493Z,3.63
2018-02-24T23:59:01.744Z,4.77
